sensor_id;sensor_type;location;lat;lon;timestamp;temperature;humidity
29817;DHT22;16805;52.956;5.906;2024-03-02T00:00:22;8.10;99.90
29817;DHT22;16805;52.956;5.906;2024-03-02T00:02:51;8.10;99.90
29817;DHT22;16805;52.956;5.906;2024-03-02T00:05:23;8.10;99.90
29817;DHT22;16805;52.956;5.906;2024-03-02T00:07:57;8.10;99.90
29817;DHT22;16805;52.956;5.906;2024-03-02T00:10:37;8.10;99.90
29817;DHT22;16805;52.956;5.906;2024-03-02T00:13:09;8.10;99.90
29817;DHT22;16805;52.956;5.906;2024-03-02T00:18:14;8.10;99.90
29817;DHT22;16805;52.956;5.906;2024-03-02T00:20:42;8.10;99.90
29817;DHT22;16805;52.956;5.906;2024-03-02T00:23:10;8.10;99.90
29817;DHT22;16805;52.956;5.906;2024-03-02T00:25:54;8.10;99.90
29817;DHT22;16805;52.956;5.906;2024-03-02T00:28:23;8.10;99.90
29817;DHT22;16805;52.956;5.906;2024-03-02T00:31:09;8.00;99.90
29817;DHT22;16805;52.956;5.906;2024-03-02T00:33:42;8.10;99.90
29817;DHT22;16805;52.956;5.906;2024-03-02T00:36:15;8.00;99.90
29817;DHT22;16805;52.956;5.906;2024-03-02T00:38:52;8.10;99.90
29817;DHT22;16805;52.956;5.906;2024-03-02T00:43:59;8.10;99.90
29817;DHT22;16805;52.956;5.906;2024-03-02T00:46:29;8.10;99.90
29817;DHT22;16805;52.956;5.906;2024-03-02T00:48:58;8.10;99.90
29817;DHT22;16805;52.956;5.906;2024-03-02T00:51:27;8.10;99.90
29817;DHT22;16805;52.956;5.906;2024-03-02T00:53:58;8.10;99.90
29817;DHT22;16805;52.956;5.906;2024-03-02T00:56:24;8.10;99.90
29817;DHT22;16805;52.956;5.906;2024-03-02T00:58:55;8.10;99.90
29817;DHT22;16805;52.956;5.906;2024-03-02T01:01:26;8.20;99.90
29817;DHT22;16805;52.956;5.906;2024-03-02T01:03:52;8.20;99.90
29817;DHT22;16805;52.956;5.906;2024-03-02T01:06:18;8.20;99.90
29817;DHT22;16805;52.956;5.906;2024-03-02T01:08:46;8.20;99.90
29817;DHT22;16805;52.956;5.906;2024-03-02T01:11:18;8.20;99.90
29817;DHT22;16805;52.956;5.906;2024-03-02T01:13:49;8.20;99.90
29817;DHT22;16805;52.956;5.906;2024-03-02T01:16:16;8.20;99.90
29817;DHT22;16805;52.956;5.906;2024-03-02T01:18:42;8.20;99.90
29817;DHT22;16805;52.956;5.906;2024-03-02T01:21:12;8.20;99.90
29817;DHT22;16805;52.956;5.906;2024-03-02T01:23:40;8.20;99.90
29817;DHT22;16805;52.956;5.906;2024-03-02T01:26:06;8.30;99.90
29817;DHT22;16805;52.956;5.906;2024-03-02T01:28:33;8.20;99.90
29817;DHT22;16805;52.956;5.906;2024-03-02T01:30:58;8.20;99.90
29817;DHT22;16805;52.956;5.906;2024-03-02T01:33:27;8.30;99.90
29817;DHT22;16805;52.956;5.906;2024-03-02T01:35:55;8.30;99.90
29817;DHT22;16805;52.956;5.906;2024-03-02T01:38:20;8.20;99.90
29817;DHT22;16805;52.956;5.906;2024-03-02T01:40:50;8.30;99.90
29817;DHT22;16805;52.956;5.906;2024-03-02T01:43:18;8.30;99.90
29817;DHT22;16805;52.956;5.906;2024-03-02T01:45:50;8.30;99.90
29817;DHT22;16805;52.956;5.906;2024-03-02T01:48:17;8.30;99.90
29817;DHT22;16805;52.956;5.906;2024-03-02T01:50:49;8.30;99.90
29817;DHT22;16805;52.956;5.906;2024-03-02T01:53:24;8.30;99.90
29817;DHT22;16805;52.956;5.906;2024-03-02T01:55:50;8.30;99.90
29817;DHT22;16805;52.956;5.906;2024-03-02T01:58:16;8.30;99.90
29817;DHT22;16805;52.956;5.906;2024-03-02T02:00:43;8.30;99.90
29817;DHT22;16805;52.956;5.906;2024-03-02T02:03:12;8.40;99.90
29817;DHT22;16805;52.956;5.906;2024-03-02T02:05:39;8.30;99.90
29817;DHT22;16805;52.956;5.906;2024-03-02T02:08:11;8.40;99.90
29817;DHT22;16805;52.956;5.906;2024-03-02T02:10:38;8.40;99.90
29817;DHT22;16805;52.956;5.906;2024-03-02T02:13:08;8.40;99.90
29817;DHT22;16805;52.956;5.906;2024-03-02T02:15:36;8.40;99.90
29817;DHT22;16805;52.956;5.906;2024-03-02T02:18:06;8.40;99.90
29817;DHT22;16805;52.956;5.906;2024-03-02T02:20:32;8.50;99.90
29817;DHT22;16805;52.956;5.906;2024-03-02T02:23:03;8.50;99.90
29817;DHT22;16805;52.956;5.906;2024-03-02T02:25:29;8.60;99.90
29817;DHT22;16805;52.956;5.906;2024-03-02T02:28:00;8.60;99.90
29817;DHT22;16805;52.956;5.906;2024-03-02T02:30:30;8.60;99.90
29817;DHT22;16805;52.956;5.906;2024-03-02T02:32:56;8.60;99.90
29817;DHT22;16805;52.956;5.906;2024-03-02T02:35:22;8.70;99.90
29817;DHT22;16805;52.956;5.906;2024-03-02T02:37:49;8.70;99.90
29817;DHT22;16805;52.956;5.906;2024-03-02T02:40:16;8.70;99.90
29817;DHT22;16805;52.956;5.906;2024-03-02T02:42:41;8.70;99.90
29817;DHT22;16805;52.956;5.906;2024-03-02T02:45:07;8.70;99.90
29817;DHT22;16805;52.956;5.906;2024-03-02T02:47:33;8.70;99.90
29817;DHT22;16805;52.956;5.906;2024-03-02T02:50:02;8.60;99.90
29817;DHT22;16805;52.956;5.906;2024-03-02T02:52:38;8.70;99.90
29817;DHT22;16805;52.956;5.906;2024-03-02T02:55:12;8.70;99.90
29817;DHT22;16805;52.956;5.906;2024-03-02T02:57:52;8.70;99.90
29817;DHT22;16805;52.956;5.906;2024-03-02T03:00:22;8.70;99.90
29817;DHT22;16805;52.956;5.906;2024-03-02T03:02:48;8.70;99.90
29817;DHT22;16805;52.956;5.906;2024-03-02T03:05:15;8.70;99.90
29817;DHT22;16805;52.956;5.906;2024-03-02T03:07:44;8.70;99.90
29817;DHT22;16805;52.956;5.906;2024-03-02T03:10:10;8.70;99.90
29817;DHT22;16805;52.956;5.906;2024-03-02T03:12:36;8.70;99.90
29817;DHT22;16805;52.956;5.906;2024-03-02T03:15:06;8.70;99.90
29817;DHT22;16805;52.956;5.906;2024-03-02T03:17:32;8.70;99.90
29817;DHT22;16805;52.956;5.906;2024-03-02T03:19:59;8.70;99.90
29817;DHT22;16805;52.956;5.906;2024-03-02T03:22:26;8.70;99.90
29817;DHT22;16805;52.956;5.906;2024-03-02T03:24:56;8.70;99.90
29817;DHT22;16805;52.956;5.906;2024-03-02T03:27:22;8.70;99.90
29817;DHT22;16805;52.956;5.906;2024-03-02T03:29:47;8.60;99.90
29817;DHT22;16805;52.956;5.906;2024-03-02T03:32:14;8.60;99.90
29817;DHT22;16805;52.956;5.906;2024-03-02T03:34:42;8.60;99.90
29817;DHT22;16805;52.956;5.906;2024-03-02T03:37:13;8.60;99.90
29817;DHT22;16805;52.956;5.906;2024-03-02T03:39:40;8.60;99.90
29817;DHT22;16805;52.956;5.906;2024-03-02T03:42:05;8.60;99.90
29817;DHT22;16805;52.956;5.906;2024-03-02T03:44:32;8.60;99.90
29817;DHT22;16805;52.956;5.906;2024-03-02T03:46:59;8.50;99.90
29817;DHT22;16805;52.956;5.906;2024-03-02T03:49:34;8.60;99.90
29817;DHT22;16805;52.956;5.906;2024-03-02T03:51:59;8.60;99.90
29817;DHT22;16805;52.956;5.906;2024-03-02T03:54:26;8.50;99.90
29817;DHT22;16805;52.956;5.906;2024-03-02T03:56:52;8.50;99.90
29817;DHT22;16805;52.956;5.906;2024-03-02T03:59:18;8.50;99.90
29817;DHT22;16805;52.956;5.906;2024-03-02T04:01:45;8.50;99.90
29817;DHT22;16805;52.956;5.906;2024-03-02T04:04:10;8.40;99.90
29817;DHT22;16805;52.956;5.906;2024-03-02T04:06:40;8.40;99.90
29817;DHT22;16805;52.956;5.906;2024-03-02T04:09:06;8.40;99.90
29817;DHT22;16805;52.956;5.906;2024-03-02T04:11:36;8.40;99.90
29817;DHT22;16805;52.956;5.906;2024-03-02T04:14:06;8.40;99.90
29817;DHT22;16805;52.956;5.906;2024-03-02T04:16:35;8.30;99.90
29817;DHT22;16805;52.956;5.906;2024-03-02T04:19:01;8.30;99.90
29817;DHT22;16805;52.956;5.906;2024-03-02T04:21:30;8.30;99.90
29817;DHT22;16805;52.956;5.906;2024-03-02T04:24:00;8.30;99.90
29817;DHT22;16805;52.956;5.906;2024-03-02T04:26:26;8.30;99.90
29817;DHT22;16805;52.956;5.906;2024-03-02T04:28:59;8.20;99.90
29817;DHT22;16805;52.956;5.906;2024-03-02T04:31:25;8.20;99.90
29817;DHT22;16805;52.956;5.906;2024-03-02T04:33:54;8.20;99.90
29817;DHT22;16805;52.956;5.906;2024-03-02T04:36:20;8.20;99.90
29817;DHT22;16805;52.956;5.906;2024-03-02T04:38:46;8.20;99.90
29817;DHT22;16805;52.956;5.906;2024-03-02T04:41:12;8.20;99.90
29817;DHT22;16805;52.956;5.906;2024-03-02T04:43:39;8.10;99.90
29817;DHT22;16805;52.956;5.906;2024-03-02T04:46:07;8.10;99.90
29817;DHT22;16805;52.956;5.906;2024-03-02T04:48:33;8.10;99.90
29817;DHT22;16805;52.956;5.906;2024-03-02T04:51:04;8.10;99.90
29817;DHT22;16805;52.956;5.906;2024-03-02T04:53:35;8.00;99.90
29817;DHT22;16805;52.956;5.906;2024-03-02T04:56:01;8.00;99.90
29817;DHT22;16805;52.956;5.906;2024-03-02T04:58:47;8.00;99.90
29817;DHT22;16805;52.956;5.906;2024-03-02T05:01:15;7.90;99.90
29817;DHT22;16805;52.956;5.906;2024-03-02T05:03:42;7.90;99.90
29817;DHT22;16805;52.956;5.906;2024-03-02T05:06:11;7.90;99.90
29817;DHT22;16805;52.956;5.906;2024-03-02T05:08:44;7.80;99.90
29817;DHT22;16805;52.956;5.906;2024-03-02T05:11:10;7.80;99.90
29817;DHT22;16805;52.956;5.906;2024-03-02T05:13:54;7.80;99.90
29817;DHT22;16805;52.956;5.906;2024-03-02T05:16:21;7.80;99.90
29817;DHT22;16805;52.956;5.906;2024-03-02T05:18:48;7.70;99.90
29817;DHT22;16805;52.956;5.906;2024-03-02T05:21:14;7.70;99.90
29817;DHT22;16805;52.956;5.906;2024-03-02T05:23:39;7.70;99.90
29817;DHT22;16805;52.956;5.906;2024-03-02T05:26:08;7.70;99.90
29817;DHT22;16805;52.956;5.906;2024-03-02T05:28:36;7.60;99.90
29817;DHT22;16805;52.956;5.906;2024-03-02T05:31:02;7.60;99.90
29817;DHT22;16805;52.956;5.906;2024-03-02T05:33:28;7.60;99.90
29817;DHT22;16805;52.956;5.906;2024-03-02T05:35:58;7.60;99.90
29817;DHT22;16805;52.956;5.906;2024-03-02T05:38:24;7.50;99.90
29817;DHT22;16805;52.956;5.906;2024-03-02T05:40:50;7.50;99.90
29817;DHT22;16805;52.956;5.906;2024-03-02T05:43:15;7.50;99.90
29817;DHT22;16805;52.956;5.906;2024-03-02T05:45:44;7.40;99.90
29817;DHT22;16805;52.956;5.906;2024-03-02T05:48:10;7.40;99.90
29817;DHT22;16805;52.956;5.906;2024-03-02T05:50:39;7.40;99.90
29817;DHT22;16805;52.956;5.906;2024-03-02T05:53:08;7.30;99.90
29817;DHT22;16805;52.956;5.906;2024-03-02T05:55:40;7.30;99.90
29817;DHT22;16805;52.956;5.906;2024-03-02T05:58:05;7.30;99.90
29817;DHT22;16805;52.956;5.906;2024-03-02T06:00:32;7.20;99.90
29817;DHT22;16805;52.956;5.906;2024-03-02T06:02:58;7.20;99.90
29817;DHT22;16805;52.956;5.906;2024-03-02T06:05:28;7.20;99.90
29817;DHT22;16805;52.956;5.906;2024-03-02T06:08:00;7.20;99.90
29817;DHT22;16805;52.956;5.906;2024-03-02T06:10:27;7.20;99.90
29817;DHT22;16805;52.956;5.906;2024-03-02T06:12:56;7.10;99.90
29817;DHT22;16805;52.956;5.906;2024-03-02T06:15:54;7.10;99.90
29817;DHT22;16805;52.956;5.906;2024-03-02T06:18:27;7.00;99.90
29817;DHT22;16805;52.956;5.906;2024-03-02T06:20:57;7.00;99.90
29817;DHT22;16805;52.956;5.906;2024-03-02T06:23:31;7.00;99.90
29817;DHT22;16805;52.956;5.906;2024-03-02T06:26:04;7.00;99.90
29817;DHT22;16805;52.956;5.906;2024-03-02T06:28:38;6.90;99.90
29817;DHT22;16805;52.956;5.906;2024-03-02T06:31:18;6.90;99.90
29817;DHT22;16805;52.956;5.906;2024-03-02T06:34:03;6.80;99.90
29817;DHT22;16805;52.956;5.906;2024-03-02T06:44:01;6.70;99.90
29817;DHT22;16805;52.956;5.906;2024-03-02T06:56:47;6.70;99.90
29817;DHT22;16805;52.956;5.906;2024-03-02T06:59:43;6.70;99.90
29817;DHT22;16805;52.956;5.906;2024-03-02T07:02:26;6.70;99.90
29817;DHT22;16805;52.956;5.906;2024-03-02T07:08:20;6.70;99.90
29817;DHT22;16805;52.956;5.906;2024-03-02T07:14:11;6.90;99.90
29817;DHT22;16805;52.956;5.906;2024-03-02T07:16:57;7.00;99.90
29817;DHT22;16805;52.956;5.906;2024-03-02T07:19:28;7.10;99.90
29817;DHT22;16805;52.956;5.906;2024-03-02T07:22:08;7.20;99.90
29817;DHT22;16805;52.956;5.906;2024-03-02T07:24:56;7.30;99.90
29817;DHT22;16805;52.956;5.906;2024-03-02T07:27:37;7.40;99.90
29817;DHT22;16805;52.956;5.906;2024-03-02T07:30:07;7.50;99.90
29817;DHT22;16805;52.956;5.906;2024-03-02T07:35:55;7.70;99.90
29817;DHT22;16805;52.956;5.906;2024-03-02T07:38:33;7.80;99.90
29817;DHT22;16805;52.956;5.906;2024-03-02T07:41:21;7.90;99.90
29817;DHT22;16805;52.956;5.906;2024-03-02T07:43:49;8.10;99.90
29817;DHT22;16805;52.956;5.906;2024-03-02T07:46:15;8.20;99.90
29817;DHT22;16805;52.956;5.906;2024-03-02T07:48:49;8.30;99.90
29817;DHT22;16805;52.956;5.906;2024-03-02T07:51:21;8.40;99.90
29817;DHT22;16805;52.956;5.906;2024-03-02T07:54:00;8.40;99.90
29817;DHT22;16805;52.956;5.906;2024-03-02T07:56:27;8.40;99.90
29817;DHT22;16805;52.956;5.906;2024-03-02T07:59:00;8.40;99.90
29817;DHT22;16805;52.956;5.906;2024-03-02T08:08:04;8.50;99.90
29817;DHT22;16805;52.956;5.906;2024-03-02T08:10:44;8.70;99.90
29817;DHT22;16805;52.956;5.906;2024-03-02T08:13:28;8.90;99.90
29817;DHT22;16805;52.956;5.906;2024-03-02T08:15:55;9.00;99.90
29817;DHT22;16805;52.956;5.906;2024-03-02T08:18:39;9.20;99.90
29817;DHT22;16805;52.956;5.906;2024-03-02T08:21:14;9.30;99.90
29817;DHT22;16805;52.956;5.906;2024-03-02T08:23:54;9.40;99.90
29817;DHT22;16805;52.956;5.906;2024-03-02T08:26:33;9.50;99.90
29817;DHT22;16805;52.956;5.906;2024-03-02T08:29:15;9.70;99.90
29817;DHT22;16805;52.956;5.906;2024-03-02T08:31:55;9.80;99.90
29817;DHT22;16805;52.956;5.906;2024-03-02T08:34:35;9.80;99.90
29817;DHT22;16805;52.956;5.906;2024-03-02T08:37:12;10.00;99.90
29817;DHT22;16805;52.956;5.906;2024-03-02T08:39:47;10.10;99.90
29817;DHT22;16805;52.956;5.906;2024-03-02T08:42:20;10.10;99.90
29817;DHT22;16805;52.956;5.906;2024-03-02T08:45:01;10.20;99.90
29817;DHT22;16805;52.956;5.906;2024-03-02T08:47:46;10.10;99.90
29817;DHT22;16805;52.956;5.906;2024-03-02T08:50:40;10.00;99.90
29817;DHT22;16805;52.956;5.906;2024-03-02T08:53:24;10.00;99.90
29817;DHT22;16805;52.956;5.906;2024-03-02T08:56:18;9.90;99.90
29817;DHT22;16805;52.956;5.906;2024-03-02T08:59:11;9.90;99.90
29817;DHT22;16805;52.956;5.906;2024-03-02T09:01:41;9.80;99.90
29817;DHT22;16805;52.956;5.906;2024-03-02T09:04:49;9.80;99.90
29817;DHT22;16805;52.956;5.906;2024-03-02T09:07:39;9.80;99.90
29817;DHT22;16805;52.956;5.906;2024-03-02T09:10:25;9.90;99.90
29817;DHT22;16805;52.956;5.906;2024-03-02T09:13:25;9.90;99.90
29817;DHT22;16805;52.956;5.906;2024-03-02T09:16:08;10.00;99.90
29817;DHT22;16805;52.956;5.906;2024-03-02T09:19:08;10.00;99.90
29817;DHT22;16805;52.956;5.906;2024-03-02T09:22:08;10.00;99.90
29817;DHT22;16805;52.956;5.906;2024-03-02T09:24:43;10.00;99.90
29817;DHT22;16805;52.956;5.906;2024-03-02T09:30:12;10.10;99.90
29817;DHT22;16805;52.956;5.906;2024-03-02T09:35:36;10.00;99.90
29817;DHT22;16805;52.956;5.906;2024-03-02T09:38:16;10.00;99.90
29817;DHT22;16805;52.956;5.906;2024-03-02T09:40:50;10.00;99.90
29817;DHT22;16805;52.956;5.906;2024-03-02T09:43:32;10.00;99.90
29817;DHT22;16805;52.956;5.906;2024-03-02T09:46:30;10.10;99.90
29817;DHT22;16805;52.956;5.906;2024-03-02T09:49:12;10.20;99.90
29817;DHT22;16805;52.956;5.906;2024-03-02T09:52:00;10.20;99.90
29817;DHT22;16805;52.956;5.906;2024-03-02T09:54:47;10.30;99.90
29817;DHT22;16805;52.956;5.906;2024-03-02T09:57:28;10.40;99.90
29817;DHT22;16805;52.956;5.906;2024-03-02T10:00:31;10.40;99.90
29817;DHT22;16805;52.956;5.906;2024-03-02T10:03:37;10.50;99.90
29817;DHT22;16805;52.956;5.906;2024-03-02T10:31:34;10.90;99.90
29817;DHT22;16805;52.956;5.906;2024-03-02T10:34:34;10.90;99.90
29817;DHT22;16805;52.956;5.906;2024-03-02T10:37:36;11.00;99.90
29817;DHT22;16805;52.956;5.906;2024-03-02T10:48:12;11.00;99.90
29817;DHT22;16805;52.956;5.906;2024-03-02T10:51:32;11.00;99.90
29817;DHT22;16805;52.956;5.906;2024-03-02T10:54:36;11.00;99.90
29817;DHT22;16805;52.956;5.906;2024-03-02T11:10:19;11.20;99.90
29817;DHT22;16805;52.956;5.906;2024-03-02T11:16:37;11.30;99.90
29817;DHT22;16805;52.956;5.906;2024-03-02T11:19:46;11.30;99.90
29817;DHT22;16805;52.956;5.906;2024-03-02T11:26:22;11.30;99.90
29817;DHT22;16805;52.956;5.906;2024-03-02T11:32:43;11.40;99.90
29817;DHT22;16805;52.956;5.906;2024-03-02T11:35:19;11.40;99.90
29817;DHT22;16805;52.956;5.906;2024-03-02T11:44:58;11.40;99.90
29817;DHT22;16805;52.956;5.906;2024-03-02T11:48:24;11.40;99.90
29817;DHT22;16805;52.956;5.906;2024-03-02T11:51:18;11.40;99.90
29817;DHT22;16805;52.956;5.906;2024-03-02T11:54:16;11.40;99.90
29817;DHT22;16805;52.956;5.906;2024-03-02T11:57:22;11.50;99.90
29817;DHT22;16805;52.956;5.906;2024-03-02T11:59:56;11.50;99.90
29817;DHT22;16805;52.956;5.906;2024-03-02T12:03:10;11.50;99.90
29817;DHT22;16805;52.956;5.906;2024-03-02T12:06:05;11.50;99.90
29817;DHT22;16805;52.956;5.906;2024-03-02T12:08:56;11.50;99.90
29817;DHT22;16805;52.956;5.906;2024-03-02T12:11:25;11.50;99.90
29817;DHT22;16805;52.956;5.906;2024-03-02T12:14:19;11.50;99.90
29817;DHT22;16805;52.956;5.906;2024-03-02T12:17:41;11.60;99.90
29817;DHT22;16805;52.956;5.906;2024-03-02T12:20:26;11.60;99.90
29817;DHT22;16805;52.956;5.906;2024-03-02T12:23:17;11.60;99.90
29817;DHT22;16805;52.956;5.906;2024-03-02T12:26:15;11.60;99.90
29817;DHT22;16805;52.956;5.906;2024-03-02T12:29:07;11.60;99.90
29817;DHT22;16805;52.956;5.906;2024-03-02T12:35:17;11.60;99.90
29817;DHT22;16805;52.956;5.906;2024-03-02T12:38:04;11.60;99.90
29817;DHT22;16805;52.956;5.906;2024-03-02T12:41:19;11.60;99.90
29817;DHT22;16805;52.956;5.906;2024-03-02T12:44:05;11.60;99.90
29817;DHT22;16805;52.956;5.906;2024-03-02T12:50:09;11.60;99.90
29817;DHT22;16805;52.956;5.906;2024-03-02T12:52:45;11.60;99.90
29817;DHT22;16805;52.956;5.906;2024-03-02T12:59:20;11.60;99.90
29817;DHT22;16805;52.956;5.906;2024-03-02T13:03:02;11.60;99.90
29817;DHT22;16805;52.956;5.906;2024-03-02T13:06:13;11.60;99.90
29817;DHT22;16805;52.956;5.906;2024-03-02T13:08:41;11.60;99.90
29817;DHT22;16805;52.956;5.906;2024-03-02T13:11:16;11.60;99.90
29817;DHT22;16805;52.956;5.906;2024-03-02T13:14:01;11.60;99.90
29817;DHT22;16805;52.956;5.906;2024-03-02T13:16:38;11.60;99.90
29817;DHT22;16805;52.956;5.906;2024-03-02T13:23:08;11.60;99.90
29817;DHT22;16805;52.956;5.906;2024-03-02T13:26:26;11.70;99.90
29817;DHT22;16805;52.956;5.906;2024-03-02T13:28:55;11.70;99.90
29817;DHT22;16805;52.956;5.906;2024-03-02T13:31:56;11.70;99.90
29817;DHT22;16805;52.956;5.906;2024-03-02T13:35:00;11.70;99.90
29817;DHT22;16805;52.956;5.906;2024-03-02T13:38:05;11.70;99.90
29817;DHT22;16805;52.956;5.906;2024-03-02T13:44:21;11.70;99.90
29817;DHT22;16805;52.956;5.906;2024-03-02T13:47:16;11.80;99.90
29817;DHT22;16805;52.956;5.906;2024-03-02T13:49:54;11.80;99.90
29817;DHT22;16805;52.956;5.906;2024-03-02T13:52:24;11.80;99.90
29817;DHT22;16805;52.956;5.906;2024-03-02T13:55:20;11.90;99.90
29817;DHT22;16805;52.956;5.906;2024-03-02T13:58:14;11.90;99.90
29817;DHT22;16805;52.956;5.906;2024-03-02T14:00:47;12.00;99.90
29817;DHT22;16805;52.956;5.906;2024-03-02T14:03:19;12.00;99.90
29817;DHT22;16805;52.956;5.906;2024-03-02T14:05:53;12.00;99.90
29817;DHT22;16805;52.956;5.906;2024-03-02T14:08:21;12.00;99.90
29817;DHT22;16805;52.956;5.906;2024-03-02T14:10:47;12.10;99.90
29817;DHT22;16805;52.956;5.906;2024-03-02T14:13:16;12.10;99.90
29817;DHT22;16805;52.956;5.906;2024-03-02T14:15:55;12.10;99.90
29817;DHT22;16805;52.956;5.906;2024-03-02T14:18:31;12.10;99.90
29817;DHT22;16805;52.956;5.906;2024-03-02T14:21:09;12.10;99.90
29817;DHT22;16805;52.956;5.906;2024-03-02T14:23:41;12.10;99.90
29817;DHT22;16805;52.956;5.906;2024-03-02T14:26:07;12.10;99.90
29817;DHT22;16805;52.956;5.906;2024-03-02T14:28:34;12.10;99.90
29817;DHT22;16805;52.956;5.906;2024-03-02T14:31:12;12.20;99.90
29817;DHT22;16805;52.956;5.906;2024-03-02T14:33:57;12.20;99.90
29817;DHT22;16805;52.956;5.906;2024-03-02T14:36:31;12.20;99.90
29817;DHT22;16805;52.956;5.906;2024-03-02T14:39:14;12.20;99.90
29817;DHT22;16805;52.956;5.906;2024-03-02T14:41:57;12.20;99.90
29817;DHT22;16805;52.956;5.906;2024-03-02T14:44:44;12.10;99.90
29817;DHT22;16805;52.956;5.906;2024-03-02T14:47:17;12.10;99.90
29817;DHT22;16805;52.956;5.906;2024-03-02T14:49:52;12.10;99.90
29817;DHT22;16805;52.956;5.906;2024-03-02T14:52:32;12.10;99.90
29817;DHT22;16805;52.956;5.906;2024-03-02T14:54:58;12.10;99.90
29817;DHT22;16805;52.956;5.906;2024-03-02T14:57:27;12.10;99.90
29817;DHT22;16805;52.956;5.906;2024-03-02T15:00:26;12.10;99.90
29817;DHT22;16805;52.956;5.906;2024-03-02T15:03:06;12.10;99.90
29817;DHT22;16805;52.956;5.906;2024-03-02T15:05:48;12.00;99.90
29817;DHT22;16805;52.956;5.906;2024-03-02T15:08:24;12.00;99.90
29817;DHT22;16805;52.956;5.906;2024-03-02T15:10:55;12.00;99.90
29817;DHT22;16805;52.956;5.906;2024-03-02T15:13:36;12.00;99.90
29817;DHT22;16805;52.956;5.906;2024-03-02T15:16:12;12.00;99.90
29817;DHT22;16805;52.956;5.906;2024-03-02T15:19:09;11.90;99.90
29817;DHT22;16805;52.956;5.906;2024-03-02T15:21:36;11.90;99.90
29817;DHT22;16805;52.956;5.906;2024-03-02T15:24:12;11.90;99.90
29817;DHT22;16805;52.956;5.906;2024-03-02T15:27:00;11.80;99.90
29817;DHT22;16805;52.956;5.906;2024-03-02T15:29:32;11.80;99.90
29817;DHT22;16805;52.956;5.906;2024-03-02T15:32:11;11.80;99.90
29817;DHT22;16805;52.956;5.906;2024-03-02T15:34:40;11.80;99.90
29817;DHT22;16805;52.956;5.906;2024-03-02T15:37:12;11.80;99.90
29817;DHT22;16805;52.956;5.906;2024-03-02T15:39:41;11.80;99.90
29817;DHT22;16805;52.956;5.906;2024-03-02T15:42:14;11.80;99.90
29817;DHT22;16805;52.956;5.906;2024-03-02T15:44:55;11.80;99.90
29817;DHT22;16805;52.956;5.906;2024-03-02T15:47:21;11.70;99.90
29817;DHT22;16805;52.956;5.906;2024-03-02T15:49:48;11.70;99.90
29817;DHT22;16805;52.956;5.906;2024-03-02T15:52:34;11.70;99.90
29817;DHT22;16805;52.956;5.906;2024-03-02T15:55:06;11.70;99.90
29817;DHT22;16805;52.956;5.906;2024-03-02T15:57:37;11.70;99.90
29817;DHT22;16805;52.956;5.906;2024-03-02T16:00:07;11.70;99.90
29817;DHT22;16805;52.956;5.906;2024-03-02T16:02:45;11.70;99.90
29817;DHT22;16805;52.956;5.906;2024-03-02T16:05:17;11.70;99.90
29817;DHT22;16805;52.956;5.906;2024-03-02T16:07:58;11.70;99.90
29817;DHT22;16805;52.956;5.906;2024-03-02T16:10:48;11.70;99.90
29817;DHT22;16805;52.956;5.906;2024-03-02T16:13:26;11.70;99.90
29817;DHT22;16805;52.956;5.906;2024-03-02T16:15:57;11.70;99.90
29817;DHT22;16805;52.956;5.906;2024-03-02T16:18:37;11.70;99.90
29817;DHT22;16805;52.956;5.906;2024-03-02T16:21:14;11.70;99.90
29817;DHT22;16805;52.956;5.906;2024-03-02T16:23:41;11.70;99.90
29817;DHT22;16805;52.956;5.906;2024-03-02T16:26:11;11.70;99.90
29817;DHT22;16805;52.956;5.906;2024-03-02T16:28:40;11.60;99.90
29817;DHT22;16805;52.956;5.906;2024-03-02T16:31:13;11.60;99.90
29817;DHT22;16805;52.956;5.906;2024-03-02T16:33:43;11.60;99.90
29817;DHT22;16805;52.956;5.906;2024-03-02T16:36:16;11.60;99.90
29817;DHT22;16805;52.956;5.906;2024-03-02T16:38:42;11.60;99.90
29817;DHT22;16805;52.956;5.906;2024-03-02T16:41:44;11.60;99.90
29817;DHT22;16805;52.956;5.906;2024-03-02T16:44:20;11.60;99.90
29817;DHT22;16805;52.956;5.906;2024-03-02T16:47:01;11.60;99.90
29817;DHT22;16805;52.956;5.906;2024-03-02T16:49:52;11.50;99.90
29817;DHT22;16805;52.956;5.906;2024-03-02T16:52:28;11.50;99.90
29817;DHT22;16805;52.956;5.906;2024-03-02T16:54:57;11.50;99.90
29817;DHT22;16805;52.956;5.906;2024-03-02T16:57:26;11.40;99.90
29817;DHT22;16805;52.956;5.906;2024-03-02T17:00:13;11.40;99.90
29817;DHT22;16805;52.956;5.906;2024-03-02T17:02:46;11.40;99.90
29817;DHT22;16805;52.956;5.906;2024-03-02T17:05:26;11.40;99.90
29817;DHT22;16805;52.956;5.906;2024-03-02T17:08:06;11.40;99.90
29817;DHT22;16805;52.956;5.906;2024-03-02T17:10:38;11.30;99.90
29817;DHT22;16805;52.956;5.906;2024-03-02T17:13:16;11.30;99.90
29817;DHT22;16805;52.956;5.906;2024-03-02T17:15:54;11.30;99.90
29817;DHT22;16805;52.956;5.906;2024-03-02T17:18:23;11.30;99.90
29817;DHT22;16805;52.956;5.906;2024-03-02T17:21:29;11.20;99.90
29817;DHT22;16805;52.956;5.906;2024-03-02T17:24:15;11.20;99.90
29817;DHT22;16805;52.956;5.906;2024-03-02T17:26:53;11.10;99.90
29817;DHT22;16805;52.956;5.906;2024-03-02T17:29:40;11.10;99.90
29817;DHT22;16805;52.956;5.906;2024-03-02T17:32:19;11.10;99.90
29817;DHT22;16805;52.956;5.906;2024-03-02T17:34:58;11.10;99.90
29817;DHT22;16805;52.956;5.906;2024-03-02T17:37:25;11.00;99.90
29817;DHT22;16805;52.956;5.906;2024-03-02T17:40:00;11.00;99.90
29817;DHT22;16805;52.956;5.906;2024-03-02T17:42:31;10.90;99.90
29817;DHT22;16805;52.956;5.906;2024-03-02T17:45:00;10.90;99.90
29817;DHT22;16805;52.956;5.906;2024-03-02T17:47:41;10.90;99.90
29817;DHT22;16805;52.956;5.906;2024-03-02T17:50:11;10.80;99.90
29817;DHT22;16805;52.956;5.906;2024-03-02T17:52:36;10.80;99.90
29817;DHT22;16805;52.956;5.906;2024-03-02T17:55:05;10.80;99.90
29817;DHT22;16805;52.956;5.906;2024-03-02T17:57:37;10.70;99.90
29817;DHT22;16805;52.956;5.906;2024-03-02T18:00:04;10.70;99.90
29817;DHT22;16805;52.956;5.906;2024-03-02T18:02:31;10.70;99.90
29817;DHT22;16805;52.956;5.906;2024-03-02T18:05:02;10.70;99.90
29817;DHT22;16805;52.956;5.906;2024-03-02T18:07:29;10.60;99.90
29817;DHT22;16805;52.956;5.906;2024-03-02T18:09:55;10.60;99.90
29817;DHT22;16805;52.956;5.906;2024-03-02T18:12:28;10.60;99.90
29817;DHT22;16805;52.956;5.906;2024-03-02T18:14:54;10.50;99.90
29817;DHT22;16805;52.956;5.906;2024-03-02T18:17:45;10.50;99.90
29817;DHT22;16805;52.956;5.906;2024-03-02T18:20:14;10.50;99.90
29817;DHT22;16805;52.956;5.906;2024-03-02T18:22:43;10.50;99.90
29817;DHT22;16805;52.956;5.906;2024-03-02T18:25:18;10.40;99.90
29817;DHT22;16805;52.956;5.906;2024-03-02T18:27:46;10.40;99.90
29817;DHT22;16805;52.956;5.906;2024-03-02T18:30:12;10.40;99.90
29817;DHT22;16805;52.956;5.906;2024-03-02T18:32:40;10.40;99.90
29817;DHT22;16805;52.956;5.906;2024-03-02T18:35:12;10.40;99.90
29817;DHT22;16805;52.956;5.906;2024-03-02T18:37:45;10.30;99.90
29817;DHT22;16805;52.956;5.906;2024-03-02T18:40:16;10.30;99.90